Time;durP1;ratioP1;P1;durP2;ratioP2;P2;SDS_P1;SDS_P2;PMS_P1;PMS_P2;Temp;Humidity;BMP_temperature;BMP_pressure;BME280_temperature;BME280_humidity;BME280_pressure;Samples;Min_cycle;Max_cycle;Signal;HPM_P1;HPM_P2
2022/07/11 00:00:10;;;;;;;3.65;1.30;;;;;;;26.11;40.22;100749.96;1656060;85;21507;-50
2022/07/11 00:05:09;;;;;;;1.98;1.10;;;;;;;26.05;40.08;100752.62;1586080;88;21054;-49
2022/07/11 00:07:37;;;;;;;1.70;1.10;;;;;;;26.03;40.51;100757.75;1569694;89;21557;-48
2022/07/11 00:10:07;;;;;;;5.17;1.10;;;;;;;26.01;40.25;100752.52;1577124;89;21072;-50
2022/07/11 00:12:35;;;;;;;5.00;1.42;;;;;;;25.99;40.44;100756.33;1568351;90;21097;-51
2022/07/11 00:15:02;;;;;;;1.32;1.05;;;;;;;25.95;40.29;100757.53;1577164;89;21136;-51
2022/07/11 00:17:31;;;;;;;3.37;1.42;;;;;;;25.91;39.94;100759.63;1568470;91;21030;-49
2022/07/11 00:19:58;;;;;;;6.15;1.42;;;;;;;25.87;40.21;100756.86;1577069;89;21044;-50
2022/07/11 00:22:27;;;;;;;3.52;1.25;;;;;;;25.85;40.09;100760.14;1545786;91;21665;-53
2022/07/11 00:24:54;;;;;;;3.05;1.00;;;;;;;25.79;40.32;100758.86;1559902;90;21069;-49
2022/07/11 00:27:22;;;;;;;4.53;1.42;;;;;;;25.77;40.34;100757.29;1545133;91;21071;-51
2022/07/11 00:29:50;;;;;;;3.77;1.42;;;;;;;25.73;39.82;100759.37;1559878;92;21079;-49
2022/07/11 00:32:17;;;;;;;2.95;1.37;;;;;;;25.69;40.49;100751.28;1545037;91;21099;-50
2022/07/11 00:34:45;;;;;;;4.60;1.60;;;;;;;25.65;40.64;100752.52;1560071;90;21081;-50
2022/07/11 00:37:13;;;;;;;5.40;1.50;;;;;;;25.64;40.30;100762.80;1545236;93;21591;-50
2022/07/11 00:39:39;;;;;;;5.15;1.50;;;;;;;25.58;40.51;100757.14;1559758;90;21073;-49
2022/07/11 00:42:07;;;;;;;3.33;1.17;;;;;;;25.55;40.88;100758.27;1544821;91;21087;-49
2022/07/11 00:44:36;;;;;;;2.35;1.20;;;;;;;25.53;40.32;100762.84;1545117;91;21059;-52
2022/07/11 00:47:04;;;;;;;2.30;1.20;;;;;;;25.51;40.41;100758.13;1545115;91;21047;-50
2022/07/11 00:49:30;;;;;;;3.62;1.07;;;;;;;25.49;41.20;100744.61;1559868;90;21586;-50
2022/07/11 00:51:58;;;;;;;1.57;1.00;;;;;;;25.47;40.75;100751.38;1555455;90;21071;-53
2022/07/11 00:54:24;;;;;;;2.10;1.27;;;;;;;25.46;40.67;100752.84;1603219;87;21490;-49
2022/07/11 00:56:51;;;;;;;2.20;1.32;;;;;;;25.44;40.96;100746.80;1573942;89;21087;-49
2022/07/11 00:59:19;;;;;;;2.22;1.12;;;;;;;25.41;41.34;100743.89;1602959;88;21070;-50
2022/07/11 01:01:46;;;;;;;2.85;1.27;;;;;;;25.39;41.13;100739.15;1590077;88;21105;-49
2022/07/11 01:04:14;;;;;;;1.72;1.30;;;;;;;25.38;40.97;100736.62;1645466;85;21026;-51
2022/07/11 01:06:41;;;;;;;3.50;1.50;;;;;;;25.36;40.92;100740.75;1675728;85;21526;-49
2022/07/11 01:09:10;;;;;;;2.90;1.20;;;;;;;25.32;41.14;100749.97;1669974;85;21098;-52
2022/07/11 01:11:38;;;;;;;3.00;1.02;;;;;;;25.28;41.02;100739.22;1638639;85;21581;-52
2022/07/11 01:14:04;;;;;;;1.75;1.25;;;;;;;25.25;41.02;100741.27;1669322;85;21089;-49
2022/07/11 01:16:32;;;;;;;2.87;1.25;;;;;;;25.20;41.29;100743.00;1661341;85;21490;-49
2022/07/11 01:19:00;;;;;;;1.77;1.07;;;;;;;25.16;41.16;100740.71;1672086;85;21057;-53
2022/07/11 01:21:34;;;;;;;1.40;1.17;;;;;;;25.12;41.26;100730.81;1690853;82;21059;-49
2022/07/11 01:24:02;;;;;;;1.57;0.95;;;;;;;25.10;41.86;100739.38;1714327;82;21030;-52
2022/07/11 01:26:30;;;;;;;2.40;1.05;;;;;;;25.10;42.14;100739.38;1713236;82;21093;-50
2022/07/11 01:29:06;;;;;;;2.77;1.40;;;;;;;25.10;41.98;100743.88;1711808;82;21073;-49
2022/07/11 01:31:34;;;;;;;3.65;1.52;;;;;;;25.07;42.26;100740.98;1714729;82;21119;-51
2022/07/11 01:34:01;;;;;;;3.12;1.17;;;;;;;25.06;42.54;100744.59;1713229;83;20999;-52
2022/07/11 01:36:28;;;;;;;1.92;1.42;;;;;;;25.04;42.85;100740.73;1714119;82;21069;-50
2022/07/11 01:38:55;;;;;;;3.05;1.32;;;;;;;25.03;43.31;100744.38;1714416;82;21503;-49
2022/07/11 01:41:22;;;;;;;1.77;1.40;;;;;;;25.02;43.30;100735.17;1711928;82;21574;-50
2022/07/11 01:43:49;;;;;;;1.45;1.35;;;;;;;25.01;43.15;100738.82;1711198;82;21034;-51
2022/07/11 01:46:17;;;;;;;2.08;1.30;;;;;;;24.98;42.58;100741.72;1711384;82;21484;-49
2022/07/11 01:48:44;;;;;;;1.80;1.25;;;;;;;24.95;42.84;100741.98;1710814;82;21082;-51
2022/07/11 01:51:11;;;;;;;1.47;1.37;;;;;;;24.92;42.58;100743.55;1711758;82;21048;-48
2022/07/11 01:53:38;;;;;;;2.70;1.87;;;;;;;24.90;43.18;100741.50;1712797;82;21073;-51
2022/07/11 01:56:07;;;;;;;2.05;1.07;;;;;;;24.87;43.72;100743.09;1714161;82;21083;-49
2022/07/11 01:58:34;;;;;;;1.42;1.22;;;;;;;24.87;43.31;100761.73;1713885;82;21010;-50
2022/07/11 02:01:01;;;;;;;1.87;1.35;;;;;;;24.86;43.47;100761.34;1717922;82;21018;-49
2022/07/11 02:03:28;;;;;;;1.60;1.30;;;;;;;24.84;43.74;100763.29;1712243;83;21030;-51
2022/07/11 02:05:55;;;;;;;4.15;1.37;;;;;;;24.81;43.53;100763.55;1702963;82;21018;-51
2022/07/11 02:08:22;;;;;;;4.28;1.35;;;;;;;24.77;43.74;100763.44;1712289;82;21015;-50
2022/07/11 02:10:51;;;;;;;2.75;1.47;;;;;;;24.77;43.74;100763.44;1710663;82;21034;-51
2022/07/11 02:13:20;;;;;;;4.00;1.47;;;;;;;24.74;43.80;100770.33;1711760;83;21058;-51
2022/07/11 02:15:49;;;;;;;5.03;1.62;;;;;;;24.70;43.87;100774.17;1715098;82;21104;-55
2022/07/11 02:18:17;;;;;;;8.13;1.85;;;;;;;24.67;44.53;100771.73;1714367;82;21066;-49
2022/07/11 02:20:48;;;;;;;4.00;1.90;;;;;;;24.67;45.00;100771.73;1702028;82;21078;-50
2022/07/11 02:23:16;;;;;;;4.80;1.87;;;;;;;24.65;44.93;100768.35;1691475;83;21121;-49
2022/07/11 02:25:44;;;;;;;3.83;1.65;;;;;;;24.63;44.90;100775.61;1681127;83;21067;-51
2022/07/11 02:28:11;;;;;;;3.72;1.50;;;;;;;24.60;45.07;100778.06;1693525;83;21051;-49
2022/07/11 02:30:40;;;;;;;1.60;1.50;;;;;;;24.60;45.06;100786.52;1692069;83;21008;-51
2022/07/11 02:33:08;;;;;;;4.45;1.52;;;;;;;24.60;44.61;100794.02;1691893;83;21050;-51
2022/07/11 02:35:37;;;;;;;3.58;1.70;;;;;;;24.58;44.52;100798.62;1692438;83;21019;-53
2022/07/11 02:38:04;;;;;;;5.30;1.70;;;;;;;24.56;44.50;100789.91;1694275;84;21027;-51
2022/07/11 02:40:31;;;;;;;2.87;1.40;;;;;;;24.50;44.61;100789.55;1693545;83;21071;-49
2022/07/11 02:42:58;;;;;;;2.65;1.87;;;;;;;24.54;44.22;100789.19;1692761;83;21050;-52
2022/07/11 02:45:24;;;;;;;4.35;1.50;;;;;;;24.54;44.13;100789.66;1677391;83;21055;-52
2022/07/11 02:47:51;;;;;;;4.58;1.77;;;;;;;24.52;44.21;100787.61;1693408;84;21078;-54
2022/07/11 02:50:19;;;;;;;2.35;1.60;;;;;;;24.55;43.89;100796.66;1693281;83;21028;-50
2022/07/11 02:52:46;;;;;;;4.40;1.65;;;;;;;24.55;44.09;100800.17;1692592;83;21537;-51
2022/07/11 02:55:15;;;;;;;3.20;1.85;;;;;;;24.55;44.17;100798.84;1690412;83;21409;-49
2022/07/11 02:57:42;;;;;;;2.85;1.82;;;;;;;24.54;43.87;100797.64;1690512;83;21083;-50
2022/07/11 03:00:15;;;;;;;9.55;2.52;;;;;;;24.56;44.37;100803.69;1690552;83;21028;-50
2022/07/11 03:02:43;;;;;;;4.05;1.98;;;;;;;24.56;44.39;100810.34;1690742;83;21012;-50
2022/07/11 03:05:09;;;;;;;1.75;1.52;;;;;;;24.57;44.38;100810.69;1690255;83;21103;-54
2022/07/11 03:07:37;;;;;;;3.25;2.00;;;;;;;24.59;44.35;100808.75;1692879;83;21110;-49
2022/07/11 03:10:05;;;;;;;3.35;1.42;;;;;;;24.58;44.13;100811.06;1693486;83;21059;-50
2022/07/11 03:12:32;;;;;;;1.87;1.30;;;;;;;24.58;44.75;100821.70;1692930;83;21683;-50
2022/07/11 03:14:59;;;;;;;2.40;1.60;;;;;;;24.57;44.45;100823.98;1690775;83;21019;-51
2022/07/11 03:17:27;;;;;;;1.90;1.70;;;;;;;24.55;45.09;100831.24;1695727;84;21051;-53
2022/07/11 03:19:54;;;;;;;2.77;1.57;;;;;;;24.55;45.09;100831.24;1686304;83;21548;-51
2022/07/11 03:22:22;;;;;;;2.47;1.60;;;;;;;24.56;44.40;100832.95;1694652;82;21094;-48
2022/07/11 03:24:50;;;;;;;3.52;1.80;;;;;;;24.56;45.09;100839.12;1698397;82;21079;-50
2022/07/11 03:27:17;;;;;;;3.33;1.75;;;;;;;24.56;44.89;100836.94;1699408;82;21041;-53
2022/07/11 03:29:44;;;;;;;2.80;1.90;;;;;;;24.55;44.75;100839.22;1701365;82;21531;-50
2022/07/11 03:32:11;;;;;;;3.45;1.90;;;;;;;24.55;44.41;100841.89;1700459;82;21058;-49
2022/07/11 03:34:39;;;;;;;3.52;1.85;;;;;;;24.52;44.81;100846.98;1698616;82;21059;-51
2022/07/11 03:37:06;;;;;;;2.60;1.60;;;;;;;24.50;44.51;100841.42;1700304;82;20999;-54
2022/07/11 03:39:33;;;;;;;2.40;1.65;;;;;;;24.50;44.70;100844.08;1700253;84;21042;-50
2022/07/11 03:42:00;;;;;;;3.85;1.60;;;;;;;24.49;44.85;100842.36;1701365;82;21035;-49
2022/07/11 03:44:27;;;;;;;1.67;1.57;;;;;;;24.50;44.59;100853.39;1700223;82;21537;-49
2022/07/11 03:46:53;;;;;;;2.37;1.87;;;;;;;24.50;44.85;100851.58;1692589;82;21590;-50
2022/07/11 03:49:21;;;;;;;2.87;1.75;;;;;;;24.48;44.86;100845.53;1701586;82;21118;-49
2022/07/11 03:51:47;;;;;;;4.28;1.60;;;;;;;24.48;44.44;100856.65;1698168;82;21070;-50
2022/07/11 03:54:14;;;;;;;2.37;1.70;;;;;;;24.46;44.46;100855.92;1697126;82;21054;-50
2022/07/11 03:56:41;;;;;;;3.02;2.35;;;;;;;24.44;45.17;100857.86;1701196;82;21031;-49
2022/07/11 03:59:09;;;;;;;1.37;1.25;;;;;;;24.45;44.82;100856.88;1699812;82;21046;-49
2022/07/11 04:01:38;;;;;;;3.45;2.00;;;;;;;24.46;45.17;100859.91;1698796;82;21054;-51
2022/07/11 04:04:08;;;;;;;2.50;1.62;;;;;;;24.44;44.63;100864.00;1700426;82;21011;-52
2022/07/11 04:06:33;;;;;;;4.30;1.90;;;;;;;24.44;44.71;100871.98;1699372;84;21527;-52
2022/07/11 04:09:00;;;;;;;5.22;2.00;;;;;;;24.43;44.80;100871.63;1701300;82;21039;-48
2022/07/11 04:11:28;;;;;;;3.05;1.80;;;;;;;24.43;44.68;100872.11;1700119;84;21550;-49
2022/07/11 04:13:56;;;;;;;6.20;2.50;;;;;;;24.45;44.78;100883.47;1698283;82;21024;-49
2022/07/11 04:16:22;;;;;;;5.17;2.02;;;;;;;24.43;44.39;100873.44;1698119;82;21015;-50
2022/07/11 04:18:49;;;;;;;3.33;1.77;;;;;;;24.44;44.39;100879.14;1698084;82;21098;-50
2022/07/11 04:21:16;;;;;;;2.83;2.08;;;;;;;24.43;44.30;100872.11;1698225;82;21079;-51
2022/07/11 04:23:45;;;;;;;5.40;2.42;;;;;;;24.43;43.99;100881.41;1691105;83;21114;-53
2022/07/11 04:26:12;;;;;;;3.15;1.90;;;;;;;24.43;44.21;100885.41;1690267;83;21563;-53
2022/07/11 04:28:39;;;;;;;2.10;1.90;;;;;;;24.43;44.25;100890.25;1692472;84;21074;-50
2022/07/11 04:31:06;;;;;;;2.00;1.80;;;;;;;24.46;44.77;100890.50;1693529;84;21031;-49
2022/07/11 04:33:32;;;;;;;3.47;2.10;;;;;;;24.47;44.57;100890.38;1693315;83;21035;-51
2022/07/11 04:35:59;;;;;;;2.00;1.90;;;;;;;24.48;44.64;100901.87;1691874;83;21503;-49
2022/07/11 04:38:26;;;;;;;3.22;2.10;;;;;;;24.50;44.21;100901.27;1681092;83;21055;-49
2022/07/11 04:40:53;;;;;;;6.35;1.95;;;;;;;24.53;44.20;100903.20;1690894;83;21087;-52
2022/07/11 04:43:20;;;;;;;2.25;1.67;;;;;;;24.58;43.79;100909.51;1692498;84;20963;-49
2022/07/11 04:45:47;;;;;;;2.45;2.00;;;;;;;24.61;43.40;100911.44;1693342;83;21047;-52
2022/07/11 04:48:14;;;;;;;2.75;1.72;;;;;;;24.61;43.48;100914.09;1693373;83;21075;-50
2022/07/11 04:50:44;;;;;;;2.25;1.95;;;;;;;24.63;43.34;100908.65;1678167;83;21095;-50
2022/07/11 04:53:12;;;;;;;4.58;2.20;;;;;;;24.64;43.73;100913.02;1691377;84;21060;-49
2022/07/11 04:55:41;;;;;;;2.87;1.90;;;;;;;24.64;43.27;100915.68;1693607;83;21031;-52
2022/07/11 04:58:08;;;;;;;3.60;1.90;;;;;;;24.62;43.46;100918.47;1692473;83;21118;-49
2022/07/11 05:00:36;;;;;;;2.15;1.80;;;;;;;24.60;43.53;100924.87;1690670;83;21039;-49
2022/07/11 05:03:03;;;;;;;3.75;2.20;;;;;;;24.59;43.63;100937.31;1690659;83;21036;-52
2022/07/11 05:05:30;;;;;;;2.87;2.30;;;;;;;24.60;44.03;100928.86;1689989;83;21496;-48
2022/07/11 05:07:57;;;;;;;4.53;3.02;;;;;;;24.61;43.40;100938.52;1690502;83;21539;-49
2022/07/11 05:10:25;;;;;;;4.42;2.62;;;;;;;24.60;43.40;100944.34;1686964;84;21578;-50
2022/07/11 05:12:52;;;;;;;3.70;1.87;;;;;;;24.64;43.14;100951.13;1690946;83;21071;-49
2022/07/11 05:15:21;;;;;;;5.58;1.90;;;;;;;24.67;42.89;100948.69;1690785;83;21032;-48
2022/07/11 05:17:48;;;;;;;4.08;2.80;;;;;;;24.67;42.89;100948.69;1690437;83;21008;-51
2022/07/11 05:20:15;;;;;;;4.37;1.92;;;;;;;24.69;42.76;100954.77;1690655;83;21511;-49
2022/07/11 05:22:43;;;;;;;5.00;2.05;;;;;;;24.72;42.34;100964.69;1685868;83;21066;-52
2022/07/11 05:25:09;;;;;;;2.92;1.87;;;;;;;24.74;42.20;100964.59;1658264;84;21705;-51
2022/07/11 05:27:36;;;;;;;2.45;1.75;;;;;;;24.77;42.20;100965.70;1690335;83;21019;-49
2022/07/11 05:30:06;;;;;;;4.72;1.95;;;;;;;24.77;42.05;100957.72;1690922;83;21539;-50
2022/07/11 05:32:34;;;;;;;5.47;2.00;;;;;;;24.78;41.82;100960.73;1690431;83;21010;-50
2022/07/11 05:35:02;;;;;;;3.90;1.70;;;;;;;24.78;41.94;100962.91;1692071;83;21059;-49
2022/07/11 05:37:29;;;;;;;3.30;1.77;;;;;;;24.79;41.73;100966.43;1693333;83;21036;-49
2022/07/11 05:39:55;;;;;;;4.35;1.92;;;;;;;24.81;41.48;100963.16;1689395;84;21043;-50
2022/07/11 05:42:22;;;;;;;6.05;2.00;;;;;;;24.84;41.22;100969.09;1685755;83;21531;-51
2022/07/11 05:44:49;;;;;;;2.83;1.70;;;;;;;24.88;41.04;100965.70;1690402;83;21015;-51
2022/07/11 05:47:18;;;;;;;2.27;1.67;;;;;;;24.90;40.69;100965.09;1690888;83;21087;-50
2022/07/11 05:49:44;;;;;;;2.20;1.70;;;;;;;24.92;40.54;100965.83;1699499;83;21067;-52
2022/07/11 05:52:11;;;;;;;2.52;1.60;;;;;;;24.94;40.25;100971.88;1689699;84;21043;-49
2022/07/11 05:54:39;;;;;;;2.87;1.60;;;;;;;24.96;40.20;100980.59;1683092;83;21480;-50
2022/07/11 05:57:06;;;;;;;4.37;1.67;;;;;;;25.01;39.79;100979.77;1691239;83;21032;-49
2022/07/11 05:59:35;;;;;;;3.80;1.75;;;;;;;25.05;39.75;100977.22;1687318;83;21015;-51
2022/07/11 06:02:04;;;;;;;4.47;1.77;;;;;;;25.11;39.47;100975.88;1693444;83;21031;-51
2022/07/11 06:04:33;;;;;;;6.22;1.92;;;;;;;25.17;39.27;100973.59;1692923;83;21033;-49
2022/07/11 06:07:01;;;;;;;4.22;2.00;;;;;;;25.22;39.38;100971.91;1690964;83;21047;-49
2022/07/11 06:09:28;;;;;;;3.33;1.72;;;;;;;25.28;39.56;100973.60;1692206;83;21503;-51
2022/07/11 06:11:56;;;;;;;4.50;1.80;;;;;;;25.38;39.42;100977.23;1692886;83;21074;-49
2022/07/11 06:14:24;;;;;;;4.15;1.90;;;;;;;25.46;39.13;100982.82;1693494;83;21452;-52
2022/07/11 06:16:51;;;;;;;1.92;1.30;;;;;;;25.53;38.51;100988.00;1693792;83;21039;-49
2022/07/11 06:19:18;;;;;;;2.95;2.02;;;;;;;25.56;38.51;100981.11;1690794;83;21083;-52
2022/07/11 06:21:45;;;;;;;6.55;2.00;;;;;;;25.58;38.41;100981.83;1690579;83;21071;-49
2022/07/11 06:24:12;;;;;;;1.92;1.50;;;;;;;25.58;38.06;100981.83;1690459;83;21134;-50
2022/07/11 06:26:39;;;;;;;2.12;1.30;;;;;;;25.55;37.90;100983.91;1690542;83;21070;-50
2022/07/11 06:29:07;;;;;;;4.47;1.87;;;;;;;25.52;38.01;100984.99;1691214;83;21039;-49
2022/07/11 06:31:35;;;;;;;3.87;2.10;;;;;;;25.51;38.04;100980.62;1687173;83;21035;-50
2022/07/11 06:34:02;;;;;;;3.10;1.98;;;;;;;25.51;38.11;100988.61;1690620;83;21095;-51
2022/07/11 06:36:29;;;;;;;4.40;1.95;;;;;;;25.52;38.22;100990.32;1692505;83;21047;-52
2022/07/11 06:38:56;;;;;;;5.08;2.10;;;;;;;25.53;38.24;100991.17;1693310;84;21083;-55
2022/07/11 06:41:23;;;;;;;5.35;2.33;;;;;;;25.52;38.37;100990.32;1680613;83;21119;-51
2022/07/11 06:43:51;;;;;;;2.35;1.77;;;;;;;25.54;38.69;100988.38;1690657;83;21103;-53
2022/07/11 06:46:19;;;;;;;7.28;1.95;;;;;;;25.57;38.83;100994.81;1692032;83;21087;-49
2022/07/11 06:48:46;;;;;;;5.20;2.00;;;;;;;25.62;38.78;101002.41;1692746;84;21026;-50
2022/07/11 06:51:13;;;;;;;3.00;1.95;;;;;;;25.63;39.08;100992.98;1693425;83;21055;-50
2022/07/11 06:53:40;;;;;;;6.67;2.02;;;;;;;25.64;39.12;100991.14;1693009;83;21031;-49
2022/07/11 06:56:07;;;;;;;3.70;2.22;;;;;;;25.66;39.18;101000.72;1689913;83;21468;-50
2022/07/11 06:58:34;;;;;;;4.40;1.87;;;;;;;25.68;39.00;101009.44;1690698;83;21031;-51
2022/07/11 07:01:03;;;;;;;4.08;2.10;;;;;;;25.70;38.82;101001.31;1690529;83;21486;-49
2022/07/11 07:03:31;;;;;;;2.55;1.80;;;;;;;25.70;38.84;101004.83;1690815;83;21503;-55
2022/07/11 07:05:58;;;;;;;3.50;1.60;;;;;;;25.71;39.14;101001.20;1694225;83;21043;-50
2022/07/11 07:08:26;;;;;;;2.05;1.85;;;;;;;25.70;39.12;101006.64;1687351;83;21004;-50
2022/07/11 07:10:53;;;;;;;6.17;2.33;;;;;;;25.71;39.05;101011.02;1690421;83;21480;-51
2022/07/11 07:13:23;;;;;;;3.58;1.90;;;;;;;25.71;39.40;101009.20;1691286;84;21079;-49
2022/07/11 07:15:50;;;;;;;3.27;1.82;;;;;;;25.72;39.37;101019.36;1693839;83;21051;-50
2022/07/11 07:18:18;;;;;;;2.20;1.67;;;;;;;25.70;39.29;101022.16;1681272;83;21059;-51
2022/07/11 07:20:45;;;;;;;2.72;1.72;;;;;;;25.67;39.37;101014.90;1693393;83;21071;-49
2022/07/11 07:23:13;;;;;;;2.20;1.70;;;;;;;25.64;39.27;101019.98;1692791;83;21047;-50
2022/07/11 07:25:39;;;;;;;7.35;1.80;;;;;;;25.61;39.51;101024.24;1690371;83;21071;-51
2022/07/11 07:28:07;;;;;;;3.37;1.60;;;;;;;25.57;39.66;101021.46;1692440;83;21046;-54
2022/07/11 07:30:34;;;;;;;2.20;1.60;;;;;;;25.54;39.92;101022.17;1689439;84;21019;-50
2022/07/11 07:33:03;;;;;;;3.98;2.08;;;;;;;25.51;39.79;101031.75;1694814;83;21015;-52
2022/07/11 07:35:30;;;;;;;3.60;1.75;;;;;;;25.48;39.84;101036.83;1687700;83;21028;-51
2022/07/11 07:37:57;;;;;;;4.47;1.80;;;;;;;25.48;40.15;101038.17;1690493;83;21234;-53
2022/07/11 07:40:24;;;;;;;5.47;1.82;;;;;;;25.46;40.50;101038.77;1691953;83;21520;-51
2022/07/11 07:42:51;;;;;;;2.08;1.72;;;;;;;25.44;40.64;101048.70;1697230;83;21010;-49
2022/07/11 07:45:17;;;;;;;5.12;1.77;;;;;;;25.47;40.90;101045.78;1705912;83;21058;-50
2022/07/11 07:47:45;;;;;;;2.92;1.82;;;;;;;25.49;41.06;101053.17;1696630;82;21047;-49
2022/07/11 07:50:13;;;;;;;4.97;1.82;;;;;;;25.49;41.21;101056.34;1691620;83;21531;-49
2022/07/11 07:52:40;;;;;;;6.72;2.12;;;;;;;25.51;40.86;101051.23;1693821;83;21543;-52
2022/07/11 07:55:08;;;;;;;4.20;1.92;;;;;;;25.54;40.85;101052.34;1698006;83;21043;-50
2022/07/11 07:57:36;;;;;;;3.10;1.98;;;;;;;25.57;40.94;101054.77;1688092;83;21043;-48
